Hoxie, Texas
Current Conditions -  °F | °C
As of 9:58 AM on Friday 24 Oct 2014 (Local Time) from KGRK Reporting Station
Clear Clear  
Wind Chill: 69°   Ceiling: Unl
Heat Index: 69°   Visibility: 10mi
Dew Point: 57°   Wind: 7mph
Humidity: 67%   Direction: 170°S
Pressure: 30.18"   Gusts: NA
Location:  30.5793°N, 97.5096°W
Report Text: KGRK 241458Z AUTO 17006KT 10SM CLR 20/14 A3018 RMK AO2 SLP213 T02030139 52014
Loading
Personal Weather Stations






























Interactive Weather Map
Tropical Storm Tracking
New forecast layout! Learn more

10-Day Weather Forecast

Advertisements
Track Severe Weather on mobile